sensor_id;sensor_type;location;lat;lon;timestamp;P1;P2;P0
33431;PMS5003;35187;31.882;34.828;2023-05-10T00:01:12;15;14;
33431;PMS5003;35187;31.882;34.828;2023-05-10T00:03:41;16;13;
33431;PMS5003;35187;31.882;34.828;2023-05-10T00:06:10;12;12;
33431;PMS5003;35187;31.882;34.828;2023-05-10T00:08:40;15;12;
33431;PMS5003;35187;31.882;34.828;2023-05-10T00:11:09;12;12;
33431;PMS5003;35187;31.882;34.828;2023-05-10T00:13:38;14;12;
33431;PMS5003;35187;31.882;34.828;2023-05-10T00:16:08;13;13;
33431;PMS5003;35187;31.882;34.828;2023-05-10T00:18:37;15;14;
33431;PMS5003;35187;31.882;34.828;2023-05-10T00:21:06;12;11;
33431;PMS5003;35187;31.882;34.828;2023-05-10T00:23:35;12;12;
33431;PMS5003;35187;31.882;34.828;2023-05-10T00:26:05;12;12;
33431;PMS5003;35187;31.882;34.828;2023-05-10T00:28:35;11;11;
33431;PMS5003;35187;31.882;34.828;2023-05-10T00:31:04;11;10;
33431;PMS5003;35187;31.882;34.828;2023-05-10T00:33:33;13;10;
33431;PMS5003;35187;31.882;34.828;2023-05-10T00:36:04;10;9;
33431;PMS5003;35187;31.882;34.828;2023-05-10T00:38:34;10;10;
33431;PMS5003;35187;31.882;34.828;2023-05-10T00:41:03;13;11;
33431;PMS5003;35187;31.882;34.828;2023-05-10T00:43:32;13;12;
33431;PMS5003;35187;31.882;34.828;2023-05-10T00:46:01;14;14;
33431;PMS5003;35187;31.882;34.828;2023-05-10T00:48:31;11;10;
33431;PMS5003;35187;31.882;34.828;2023-05-10T00:51:00;14;14;
33431;PMS5003;35187;31.882;34.828;2023-05-10T00:53:30;12;12;
33431;PMS5003;35187;31.882;34.828;2023-05-10T00:56:01;12;11;
33431;PMS5003;35187;31.882;34.828;2023-05-10T00:58:36;11;11;
33431;PMS5003;35187;31.882;34.828;2023-05-10T01:01:05;12;12;
33431;PMS5003;35187;31.882;34.828;2023-05-10T01:03:35;12;11;
33431;PMS5003;35187;31.882;34.828;2023-05-10T01:06:06;8;8;
33431;PMS5003;35187;31.882;34.828;2023-05-10T01:08:35;11;10;
33431;PMS5003;35187;31.882;34.828;2023-05-10T01:11:04;12;11;
33431;PMS5003;35187;31.882;34.828;2023-05-10T01:13:36;10;10;
33431;PMS5003;35187;31.882;34.828;2023-05-10T01:16:10;9;9;
33431;PMS5003;35187;31.882;34.828;2023-05-10T01:18:40;9;8;
33431;PMS5003;35187;31.882;34.828;2023-05-10T01:21:15;11;10;
33431;PMS5003;35187;31.882;34.828;2023-05-10T01:26:06;11;9;
33431;PMS5003;35187;31.882;34.828;2023-05-10T01:28:57;9;8;
33431;PMS5003;35187;31.882;34.828;2023-05-10T01:32:17;12;11;
33431;PMS5003;35187;31.882;34.828;2023-05-10T01:34:59;11;10;
33431;PMS5003;35187;31.882;34.828;2023-05-10T01:37:33;10;10;
33431;PMS5003;35187;31.882;34.828;2023-05-10T01:40:11;10;10;
33431;PMS5003;35187;31.882;34.828;2023-05-10T01:42:47;12;12;
33431;PMS5003;35187;31.882;34.828;2023-05-10T01:45:22;8;8;
33431;PMS5003;35187;31.882;34.828;2023-05-10T01:48:01;9;8;
33431;PMS5003;35187;31.882;34.828;2023-05-10T01:50:34;5;5;
33431;PMS5003;35187;31.882;34.828;2023-05-10T01:53:06;6;6;
33431;PMS5003;35187;31.882;34.828;2023-05-10T01:55:39;8;8;
33431;PMS5003;35187;31.882;34.828;2023-05-10T01:58:15;7;6;
33431;PMS5003;35187;31.882;34.828;2023-05-10T02:00:49;7;7;
33431;PMS5003;35187;31.882;34.828;2023-05-10T02:03:20;8;8;
33431;PMS5003;35187;31.882;34.828;2023-05-10T02:05:52;9;8;
33431;PMS5003;35187;31.882;34.828;2023-05-10T02:08:23;7;7;
33431;PMS5003;35187;31.882;34.828;2023-05-10T02:10:54;10;9;
33431;PMS5003;35187;31.882;34.828;2023-05-10T02:13:26;11;11;
33431;PMS5003;35187;31.882;34.828;2023-05-10T02:15:56;11;10;
33431;PMS5003;35187;31.882;34.828;2023-05-10T02:18:27;10;10;
33431;PMS5003;35187;31.882;34.828;2023-05-10T02:20:56;10;10;
33431;PMS5003;35187;31.882;34.828;2023-05-10T02:23:27;12;12;
33431;PMS5003;35187;31.882;34.828;2023-05-10T02:25:57;12;12;
33431;PMS5003;35187;31.882;34.828;2023-05-10T02:28:30;9;9;
33431;PMS5003;35187;31.882;34.828;2023-05-10T02:31:01;7;7;
33431;PMS5003;35187;31.882;34.828;2023-05-10T02:33:31;7;7;
33431;PMS5003;35187;31.882;34.828;2023-05-10T02:36:01;8;7;
33431;PMS5003;35187;31.882;34.828;2023-05-10T02:38:31;7;7;
33431;PMS5003;35187;31.882;34.828;2023-05-10T02:41:02;12;12;
33431;PMS5003;35187;31.882;34.828;2023-05-10T02:43:33;8;6;
33431;PMS5003;35187;31.882;34.828;2023-05-10T02:46:04;10;8;
33431;PMS5003;35187;31.882;34.828;2023-05-10T02:48:33;7;7;
33431;PMS5003;35187;31.882;34.828;2023-05-10T02:51:08;7;7;
33431;PMS5003;35187;31.882;34.828;2023-05-10T02:53:44;7;7;
33431;PMS5003;35187;31.882;34.828;2023-05-10T02:56:17;7;6;
33431;PMS5003;35187;31.882;34.828;2023-05-10T02:58:53;11;10;
33431;PMS5003;35187;31.882;34.828;2023-05-10T03:01:23;16;16;
33431;PMS5003;35187;31.882;34.828;2023-05-10T03:03:53;6;6;
33431;PMS5003;35187;31.882;34.828;2023-05-10T03:06:22;9;7;
33431;PMS5003;35187;31.882;34.828;2023-05-10T03:08:52;10;8;
33431;PMS5003;35187;31.882;34.828;2023-05-10T03:11:27;7;6;
33431;PMS5003;35187;31.882;34.828;2023-05-10T03:14:10;8;6;
33431;PMS5003;35187;31.882;34.828;2023-05-10T03:16:52;6;6;
33431;PMS5003;35187;31.882;34.828;2023-05-10T03:19:34;7;5;
33431;PMS5003;35187;31.882;34.828;2023-05-10T03:22:11;8;7;
33431;PMS5003;35187;31.882;34.828;2023-05-10T03:24:48;7;7;
33431;PMS5003;35187;31.882;34.828;2023-05-10T03:27:19;8;7;
33431;PMS5003;35187;31.882;34.828;2023-05-10T03:29:51;7;6;
33431;PMS5003;35187;31.882;34.828;2023-05-10T03:32:22;9;8;
33431;PMS5003;35187;31.882;34.828;2023-05-10T03:34:53;8;7;
33431;PMS5003;35187;31.882;34.828;2023-05-10T03:37:24;9;7;
33431;PMS5003;35187;31.882;34.828;2023-05-10T03:39:54;10;7;
33431;PMS5003;35187;31.882;34.828;2023-05-10T03:42:23;6;6;
33431;PMS5003;35187;31.882;34.828;2023-05-10T03:44:52;8;6;
33431;PMS5003;35187;31.882;34.828;2023-05-10T03:47:21;8;7;
33431;PMS5003;35187;31.882;34.828;2023-05-10T03:49:50;6;6;
33431;PMS5003;35187;31.882;34.828;2023-05-10T03:52:19;8;8;
33431;PMS5003;35187;31.882;34.828;2023-05-10T03:54:48;7;6;
33431;PMS5003;35187;31.882;34.828;2023-05-10T03:57:18;6;6;
33431;PMS5003;35187;31.882;34.828;2023-05-10T03:59:47;10;9;
33431;PMS5003;35187;31.882;34.828;2023-05-10T04:02:16;8;8;
33431;PMS5003;35187;31.882;34.828;2023-05-10T04:04:45;8;8;
33431;PMS5003;35187;31.882;34.828;2023-05-10T04:07:15;9;8;
33431;PMS5003;35187;31.882;34.828;2023-05-10T04:09:45;6;6;
33431;PMS5003;35187;31.882;34.828;2023-05-10T04:12:15;8;5;
33431;PMS5003;35187;31.882;34.828;2023-05-10T04:14:44;7;7;
33431;PMS5003;35187;31.882;34.828;2023-05-10T04:17:14;9;9;
33431;PMS5003;35187;31.882;34.828;2023-05-10T04:19:43;16;16;
33431;PMS5003;35187;31.882;34.828;2023-05-10T04:22:12;15;14;
33431;PMS5003;35187;31.882;34.828;2023-05-10T04:24:41;15;14;
33431;PMS5003;35187;31.882;34.828;2023-05-10T04:27:10;8;8;
33431;PMS5003;35187;31.882;34.828;2023-05-10T04:29:40;8;8;
33431;PMS5003;35187;31.882;34.828;2023-05-10T04:32:10;8;8;
33431;PMS5003;35187;31.882;34.828;2023-05-10T04:34:41;11;10;
33431;PMS5003;35187;31.882;34.828;2023-05-10T04:37:10;10;8;
33431;PMS5003;35187;31.882;34.828;2023-05-10T04:39:39;8;8;
33431;PMS5003;35187;31.882;34.828;2023-05-10T04:42:09;10;8;
33431;PMS5003;35187;31.882;34.828;2023-05-10T04:44:38;13;13;
33431;PMS5003;35187;31.882;34.828;2023-05-10T04:47:07;10;9;
33431;PMS5003;35187;31.882;34.828;2023-05-10T04:49:37;8;8;
33431;PMS5003;35187;31.882;34.828;2023-05-10T04:52:08;11;10;
33431;PMS5003;35187;31.882;34.828;2023-05-10T04:54:37;13;12;
33431;PMS5003;35187;31.882;34.828;2023-05-10T04:57:09;12;10;
33431;PMS5003;35187;31.882;34.828;2023-05-10T04:59:38;9;9;
33431;PMS5003;35187;31.882;34.828;2023-05-10T05:02:08;10;9;
33431;PMS5003;35187;31.882;34.828;2023-05-10T05:04:37;10;8;
33431;PMS5003;35187;31.882;34.828;2023-05-10T05:07:06;10;8;
33431;PMS5003;35187;31.882;34.828;2023-05-10T05:09:41;14;11;
33431;PMS5003;35187;31.882;34.828;2023-05-10T05:12:10;11;10;
33431;PMS5003;35187;31.882;34.828;2023-05-10T05:14:45;12;11;
33431;PMS5003;35187;31.882;34.828;2023-05-10T05:17:16;11;11;
33431;PMS5003;35187;31.882;34.828;2023-05-10T05:19:46;7;7;
33431;PMS5003;35187;31.882;34.828;2023-05-10T05:22:15;11;10;
33431;PMS5003;35187;31.882;34.828;2023-05-10T05:24:44;13;10;
33431;PMS5003;35187;31.882;34.828;2023-05-10T05:27:13;9;9;
33431;PMS5003;35187;31.882;34.828;2023-05-10T05:29:43;11;10;
33431;PMS5003;35187;31.882;34.828;2023-05-10T05:32:12;10;10;
33431;PMS5003;35187;31.882;34.828;2023-05-10T05:34:41;10;10;
33431;PMS5003;35187;31.882;34.828;2023-05-10T05:37:14;10;9;
33431;PMS5003;35187;31.882;34.828;2023-05-10T05:39:44;10;9;
33431;PMS5003;35187;31.882;34.828;2023-05-10T05:42:14;11;10;
33431;PMS5003;35187;31.882;34.828;2023-05-10T05:44:43;8;8;
33431;PMS5003;35187;31.882;34.828;2023-05-10T05:47:17;12;12;
33431;PMS5003;35187;31.882;34.828;2023-05-10T05:49:46;13;10;
33431;PMS5003;35187;31.882;34.828;2023-05-10T05:52:16;10;9;
33431;PMS5003;35187;31.882;34.828;2023-05-10T05:54:44;11;10;
33431;PMS5003;35187;31.882;34.828;2023-05-10T05:57:19;12;11;
33431;PMS5003;35187;31.882;34.828;2023-05-10T05:59:48;12;12;
33431;PMS5003;35187;31.882;34.828;2023-05-10T06:02:17;15;11;
33431;PMS5003;35187;31.882;34.828;2023-05-10T06:04:46;10;10;
33431;PMS5003;35187;31.882;34.828;2023-05-10T06:07:17;11;10;
33431;PMS5003;35187;31.882;34.828;2023-05-10T06:09:52;10;9;
33431;PMS5003;35187;31.882;34.828;2023-05-10T06:12:21;10;10;
33431;PMS5003;35187;31.882;34.828;2023-05-10T06:14:50;10;10;
33431;PMS5003;35187;31.882;34.828;2023-05-10T06:17:20;11;10;
33431;PMS5003;35187;31.882;34.828;2023-05-10T06:19:49;12;10;
33431;PMS5003;35187;31.882;34.828;2023-05-10T06:22:19;10;10;
33431;PMS5003;35187;31.882;34.828;2023-05-10T06:24:49;8;8;
33431;PMS5003;35187;31.882;34.828;2023-05-10T06:27:18;12;10;
33431;PMS5003;35187;31.882;34.828;2023-05-10T06:29:47;11;11;
33431;PMS5003;35187;31.882;34.828;2023-05-10T06:32:16;12;11;
33431;PMS5003;35187;31.882;34.828;2023-05-10T06:34:46;12;9;
33431;PMS5003;35187;31.882;34.828;2023-05-10T06:37:17;14;11;
33431;PMS5003;35187;31.882;34.828;2023-05-10T06:39:46;11;9;
33431;PMS5003;35187;31.882;34.828;2023-05-10T06:42:15;9;9;
33431;PMS5003;35187;31.882;34.828;2023-05-10T06:44:44;12;11;
33431;PMS5003;35187;31.882;34.828;2023-05-10T06:47:16;11;11;
33431;PMS5003;35187;31.882;34.828;2023-05-10T06:49:45;11;9;
33431;PMS5003;35187;31.882;34.828;2023-05-10T06:52:14;11;10;
33431;PMS5003;35187;31.882;34.828;2023-05-10T06:54:48;14;12;
33431;PMS5003;35187;31.882;34.828;2023-05-10T06:57:17;12;10;
33431;PMS5003;35187;31.882;34.828;2023-05-10T06:59:47;12;12;
33431;PMS5003;35187;31.882;34.828;2023-05-10T07:02:16;11;10;
33431;PMS5003;35187;31.882;34.828;2023-05-10T07:04:47;13;12;
33431;PMS5003;35187;31.882;34.828;2023-05-10T07:07:16;14;12;
33431;PMS5003;35187;31.882;34.828;2023-05-10T07:09:46;11;11;
33431;PMS5003;35187;31.882;34.828;2023-05-10T07:12:15;11;10;
33431;PMS5003;35187;31.882;34.828;2023-05-10T07:14:44;17;15;
33431;PMS5003;35187;31.882;34.828;2023-05-10T07:17:14;13;12;
33431;PMS5003;35187;31.882;34.828;2023-05-10T07:19:43;14;12;
33431;PMS5003;35187;31.882;34.828;2023-05-10T07:22:13;11;10;
33431;PMS5003;35187;31.882;34.828;2023-05-10T07:24:43;12;12;
33431;PMS5003;35187;31.882;34.828;2023-05-10T07:27:12;12;12;
33431;PMS5003;35187;31.882;34.828;2023-05-10T07:29:43;12;11;
33431;PMS5003;35187;31.882;34.828;2023-05-10T07:32:16;13;12;
33431;PMS5003;35187;31.882;34.828;2023-05-10T07:34:45;12;10;
33431;PMS5003;35187;31.882;34.828;2023-05-10T07:37:15;13;12;
33431;PMS5003;35187;31.882;34.828;2023-05-10T07:39:44;11;11;
33431;PMS5003;35187;31.882;34.828;2023-05-10T07:42:14;14;13;
33431;PMS5003;35187;31.882;34.828;2023-05-10T07:44:44;13;12;
33431;PMS5003;35187;31.882;34.828;2023-05-10T07:47:21;12;11;
33431;PMS5003;35187;31.882;34.828;2023-05-10T07:49:50;14;13;
33431;PMS5003;35187;31.882;34.828;2023-05-10T07:52:22;12;10;
33431;PMS5003;35187;31.882;34.828;2023-05-10T07:54:58;11;11;
33431;PMS5003;35187;31.882;34.828;2023-05-10T07:57:29;14;12;
33431;PMS5003;35187;31.882;34.828;2023-05-10T07:59:58;11;11;
33431;PMS5003;35187;31.882;34.828;2023-05-10T08:02:27;13;12;
33431;PMS5003;35187;31.882;34.828;2023-05-10T08:05:13;11;10;
33431;PMS5003;35187;31.882;34.828;2023-05-10T08:07:43;13;12;
33431;PMS5003;35187;31.882;34.828;2023-05-10T08:10:16;14;14;
33431;PMS5003;35187;31.882;34.828;2023-05-10T08:12:45;13;12;
33431;PMS5003;35187;31.882;34.828;2023-05-10T08:15:14;12;11;
33431;PMS5003;35187;31.882;34.828;2023-05-10T08:17:45;12;11;
33431;PMS5003;35187;31.882;34.828;2023-05-10T08:20:21;10;10;
33431;PMS5003;35187;31.882;34.828;2023-05-10T08:22:50;14;12;
33431;PMS5003;35187;31.882;34.828;2023-05-10T08:25:21;13;12;
33431;PMS5003;35187;31.882;34.828;2023-05-10T08:27:50;10;10;
33431;PMS5003;35187;31.882;34.828;2023-05-10T08:30:20;10;10;
33431;PMS5003;35187;31.882;34.828;2023-05-10T08:32:49;13;12;
33431;PMS5003;35187;31.882;34.828;2023-05-10T08:35:19;13;12;
33431;PMS5003;35187;31.882;34.828;2023-05-10T08:37:48;11;11;
33431;PMS5003;35187;31.882;34.828;2023-05-10T08:40:17;13;10;
33431;PMS5003;35187;31.882;34.828;2023-05-10T08:42:49;16;13;
33431;PMS5003;35187;31.882;34.828;2023-05-10T08:45:23;13;11;
33431;PMS5003;35187;31.882;34.828;2023-05-10T08:47:55;14;12;
33431;PMS5003;35187;31.882;34.828;2023-05-10T08:50:26;13;12;
33431;PMS5003;35187;31.882;34.828;2023-05-10T08:52:59;14;12;
33431;PMS5003;35187;31.882;34.828;2023-05-10T08:55:34;11;10;
33431;PMS5003;35187;31.882;34.828;2023-05-10T08:58:06;16;15;
33431;PMS5003;35187;31.882;34.828;2023-05-10T09:00:36;13;11;
33431;PMS5003;35187;31.882;34.828;2023-05-10T09:03:10;13;12;
33431;PMS5003;35187;31.882;34.828;2023-05-10T09:05:39;12;10;
33431;PMS5003;35187;31.882;34.828;2023-05-10T09:08:09;11;11;
33431;PMS5003;35187;31.882;34.828;2023-05-10T09:10:40;11;11;
33431;PMS5003;35187;31.882;34.828;2023-05-10T09:13:12;11;11;
33431;PMS5003;35187;31.882;34.828;2023-05-10T09:15:44;14;12;
33431;PMS5003;35187;31.882;34.828;2023-05-10T09:18:13;12;11;
33431;PMS5003;35187;31.882;34.828;2023-05-10T09:20:42;12;11;
33431;PMS5003;35187;31.882;34.828;2023-05-10T09:23:11;13;12;
33431;PMS5003;35187;31.882;34.828;2023-05-10T09:25:41;15;14;
33431;PMS5003;35187;31.882;34.828;2023-05-10T09:28:12;11;11;
33431;PMS5003;35187;31.882;34.828;2023-05-10T09:30:44;14;12;
33431;PMS5003;35187;31.882;34.828;2023-05-10T09:33:21;11;11;
33431;PMS5003;35187;31.882;34.828;2023-05-10T09:35:52;12;11;
33431;PMS5003;35187;31.882;34.828;2023-05-10T09:38:22;13;12;
33431;PMS5003;35187;31.882;34.828;2023-05-10T09:40:52;13;12;
33431;PMS5003;35187;31.882;34.828;2023-05-10T09:43:21;13;11;
33431;PMS5003;35187;31.882;34.828;2023-05-10T09:45:51;13;12;
33431;PMS5003;35187;31.882;34.828;2023-05-10T09:48:26;13;13;
33431;PMS5003;35187;31.882;34.828;2023-05-10T09:50:57;14;13;
33431;PMS5003;35187;31.882;34.828;2023-05-10T09:53:34;13;12;
33431;PMS5003;35187;31.882;34.828;2023-05-10T09:56:03;15;14;
33431;PMS5003;35187;31.882;34.828;2023-05-10T09:58:33;13;12;
33431;PMS5003;35187;31.882;34.828;2023-05-10T10:01:06;14;13;
33431;PMS5003;35187;31.882;34.828;2023-05-10T10:03:41;14;14;
33431;PMS5003;35187;31.882;34.828;2023-05-10T10:06:11;12;10;
33431;PMS5003;35187;31.882;34.828;2023-05-10T10:08:47;13;12;
33431;PMS5003;35187;31.882;34.828;2023-05-10T10:11:17;13;13;
33431;PMS5003;35187;31.882;34.828;2023-05-10T10:13:46;14;14;
33431;PMS5003;35187;31.882;34.828;2023-05-10T10:16:16;13;13;
33431;PMS5003;35187;31.882;34.828;2023-05-10T10:18:46;12;10;
33431;PMS5003;35187;31.882;34.828;2023-05-10T10:21:21;14;12;
33431;PMS5003;35187;31.882;34.828;2023-05-10T10:23:59;11;11;
33431;PMS5003;35187;31.882;34.828;2023-05-10T10:26:29;14;12;
33431;PMS5003;35187;31.882;34.828;2023-05-10T10:29:03;13;12;
33431;PMS5003;35187;31.882;34.828;2023-05-10T10:31:44;13;12;
33431;PMS5003;35187;31.882;34.828;2023-05-10T10:34:25;10;10;
33431;PMS5003;35187;31.882;34.828;2023-05-10T10:37:10;13;13;
33431;PMS5003;35187;31.882;34.828;2023-05-10T10:39:41;12;12;
33431;PMS5003;35187;31.882;34.828;2023-05-10T10:42:11;12;12;
33431;PMS5003;35187;31.882;34.828;2023-05-10T10:44:44;14;12;
33431;PMS5003;35187;31.882;34.828;2023-05-10T10:47:31;14;12;
33431;PMS5003;35187;31.882;34.828;2023-05-10T10:50:05;14;13;
33431;PMS5003;35187;31.882;34.828;2023-05-10T10:52:36;12;11;
33431;PMS5003;35187;31.882;34.828;2023-05-10T10:55:07;13;12;
33431;PMS5003;35187;31.882;34.828;2023-05-10T10:57:54;12;12;
33431;PMS5003;35187;31.882;34.828;2023-05-10T11:00:25;13;12;
33431;PMS5003;35187;31.882;34.828;2023-05-10T11:02:57;12;11;
33431;PMS5003;35187;31.882;34.828;2023-05-10T11:05:42;12;11;
33431;PMS5003;35187;31.882;34.828;2023-05-10T11:08:13;11;10;
33431;PMS5003;35187;31.882;34.828;2023-05-10T11:10:51;12;11;
33431;PMS5003;35187;31.882;34.828;2023-05-10T11:13:30;13;13;
33431;PMS5003;35187;31.882;34.828;2023-05-10T11:16:10;13;11;
33431;PMS5003;35187;31.882;34.828;2023-05-10T11:18:53;13;12;
33431;PMS5003;35187;31.882;34.828;2023-05-10T11:21:26;10;10;
33431;PMS5003;35187;31.882;34.828;2023-05-10T11:23:56;11;11;
33431;PMS5003;35187;31.882;34.828;2023-05-10T11:26:30;12;10;
33431;PMS5003;35187;31.882;34.828;2023-05-10T11:29:01;16;13;
33431;PMS5003;35187;31.882;34.828;2023-05-10T11:31:31;13;13;
33431;PMS5003;35187;31.882;34.828;2023-05-10T11:34:00;13;12;
33431;PMS5003;35187;31.882;34.828;2023-05-10T11:36:32;11;11;
33431;PMS5003;35187;31.882;34.828;2023-05-10T11:39:03;11;11;
33431;PMS5003;35187;31.882;34.828;2023-05-10T11:41:35;11;11;
33431;PMS5003;35187;31.882;34.828;2023-05-10T11:44:05;11;11;
33431;PMS5003;35187;31.882;34.828;2023-05-10T11:46:41;11;11;
33431;PMS5003;35187;31.882;34.828;2023-05-10T11:49:12;9;9;
33431;PMS5003;35187;31.882;34.828;2023-05-10T11:51:41;10;10;
33431;PMS5003;35187;31.882;34.828;2023-05-10T11:54:15;12;12;
33431;PMS5003;35187;31.882;34.828;2023-05-10T11:56:44;11;10;
33431;PMS5003;35187;31.882;34.828;2023-05-10T11:59:13;11;10;
33431;PMS5003;35187;31.882;34.828;2023-05-10T12:01:43;12;12;
33431;PMS5003;35187;31.882;34.828;2023-05-10T12:04:13;13;10;
33431;PMS5003;35187;31.882;34.828;2023-05-10T12:06:42;11;11;
33431;PMS5003;35187;31.882;34.828;2023-05-10T12:09:13;11;10;
33431;PMS5003;35187;31.882;34.828;2023-05-10T12:11:43;13;12;
33431;PMS5003;35187;31.882;34.828;2023-05-10T12:14:23;11;10;
33431;PMS5003;35187;31.882;34.828;2023-05-10T12:17:11;12;11;
33431;PMS5003;35187;31.882;34.828;2023-05-10T12:19:41;13;11;
33431;PMS5003;35187;31.882;34.828;2023-05-10T12:22:11;13;11;
33431;PMS5003;35187;31.882;34.828;2023-05-10T12:24:40;11;10;
33431;PMS5003;35187;31.882;34.828;2023-05-10T12:27:13;9;9;
33431;PMS5003;35187;31.882;34.828;2023-05-10T12:29:48;13;10;
33431;PMS5003;35187;31.882;34.828;2023-05-10T12:32:18;8;7;
33431;PMS5003;35187;31.882;34.828;2023-05-10T12:34:47;11;9;
33431;PMS5003;35187;31.882;34.828;2023-05-10T12:37:16;11;10;
33431;PMS5003;35187;31.882;34.828;2023-05-10T12:39:51;12;11;
33431;PMS5003;35187;31.882;34.828;2023-05-10T12:42:20;12;11;
33431;PMS5003;35187;31.882;34.828;2023-05-10T12:44:49;11;10;
33431;PMS5003;35187;31.882;34.828;2023-05-10T12:47:23;14;12;
33431;PMS5003;35187;31.882;34.828;2023-05-10T12:49:52;12;10;
33431;PMS5003;35187;31.882;34.828;2023-05-10T12:52:27;12;11;
33431;PMS5003;35187;31.882;34.828;2023-05-10T12:54:58;15;12;
33431;PMS5003;35187;31.882;34.828;2023-05-10T12:57:28;14;14;
33431;PMS5003;35187;31.882;34.828;2023-05-10T12:59:58;12;12;
33431;PMS5003;35187;31.882;34.828;2023-05-10T13:02:27;10;10;
33431;PMS5003;35187;31.882;34.828;2023-05-10T13:04:57;9;9;
33431;PMS5003;35187;31.882;34.828;2023-05-10T13:07:26;13;11;
33431;PMS5003;35187;31.882;34.828;2023-05-10T13:09:55;13;12;
33431;PMS5003;35187;31.882;34.828;2023-05-10T13:12:24;16;15;
33431;PMS5003;35187;31.882;34.828;2023-05-10T13:14:53;13;13;
33431;PMS5003;35187;31.882;34.828;2023-05-10T13:17:24;15;14;
33431;PMS5003;35187;31.882;34.828;2023-05-10T13:19:54;16;13;
33431;PMS5003;35187;31.882;34.828;2023-05-10T13:22:23;14;14;
33431;PMS5003;35187;31.882;34.828;2023-05-10T13:24:52;13;13;
33431;PMS5003;35187;31.882;34.828;2023-05-10T13:27:21;15;14;
33431;PMS5003;35187;31.882;34.828;2023-05-10T13:29:50;15;13;
33431;PMS5003;35187;31.882;34.828;2023-05-10T13:32:24;13;13;
33431;PMS5003;35187;31.882;34.828;2023-05-10T13:34:54;14;13;
33431;PMS5003;35187;31.882;34.828;2023-05-10T13:37:24;15;13;
33431;PMS5003;35187;31.882;34.828;2023-05-10T13:39:58;17;15;
33431;PMS5003;35187;31.882;34.828;2023-05-10T13:42:27;13;12;
33431;PMS5003;35187;31.882;34.828;2023-05-10T13:44:56;13;12;
33431;PMS5003;35187;31.882;34.828;2023-05-10T13:47:26;13;12;
33431;PMS5003;35187;31.882;34.828;2023-05-10T13:49:55;14;14;
33431;PMS5003;35187;31.882;34.828;2023-05-10T13:52:25;12;12;
33431;PMS5003;35187;31.882;34.828;2023-05-10T13:54:54;12;12;
33431;PMS5003;35187;31.882;34.828;2023-05-10T13:57:23;14;13;
33431;PMS5003;35187;31.882;34.828;2023-05-10T13:59:53;13;11;
33431;PMS5003;35187;31.882;34.828;2023-05-10T14:02:23;13;13;
33431;PMS5003;35187;31.882;34.828;2023-05-10T14:04:52;13;12;
33431;PMS5003;35187;31.882;34.828;2023-05-10T14:07:22;13;12;
33431;PMS5003;35187;31.882;34.828;2023-05-10T14:09:52;12;11;
33431;PMS5003;35187;31.882;34.828;2023-05-10T14:12:21;15;14;
33431;PMS5003;35187;31.882;34.828;2023-05-10T14:14:51;12;11;
33431;PMS5003;35187;31.882;34.828;2023-05-10T14:17:25;14;11;
33431;PMS5003;35187;31.882;34.828;2023-05-10T14:19:54;16;13;
33431;PMS5003;35187;31.882;34.828;2023-05-10T14:22:23;13;12;
33431;PMS5003;35187;31.882;34.828;2023-05-10T14:24:52;12;12;
33431;PMS5003;35187;31.882;34.828;2023-05-10T14:27:22;12;11;
33431;PMS5003;35187;31.882;34.828;2023-05-10T14:29:52;15;13;
33431;PMS5003;35187;31.882;34.828;2023-05-10T14:32:20;12;11;
33431;PMS5003;35187;31.882;34.828;2023-05-10T14:34:49;14;14;
33431;PMS5003;35187;31.882;34.828;2023-05-10T14:37:19;11;11;
33431;PMS5003;35187;31.882;34.828;2023-05-10T14:39:49;12;11;
33431;PMS5003;35187;31.882;34.828;2023-05-10T14:42:18;11;11;
33431;PMS5003;35187;31.882;34.828;2023-05-10T14:44:51;13;12;
33431;PMS5003;35187;31.882;34.828;2023-05-10T14:47:20;13;13;
33431;PMS5003;35187;31.882;34.828;2023-05-10T14:49:50;12;11;
33431;PMS5003;35187;31.882;34.828;2023-05-10T14:52:19;15;14;
33431;PMS5003;35187;31.882;34.828;2023-05-10T14:54:49;15;11;
33431;PMS5003;35187;31.882;34.828;2023-05-10T14:57:18;12;12;
33431;PMS5003;35187;31.882;34.828;2023-05-10T14:59:47;13;12;
33431;PMS5003;35187;31.882;34.828;2023-05-10T15:02:16;13;12;
33431;PMS5003;35187;31.882;34.828;2023-05-10T15:04:47;14;14;
33431;PMS5003;35187;31.882;34.828;2023-05-10T15:07:17;24;23;
33431;PMS5003;35187;31.882;34.828;2023-05-10T15:09:46;27;24;
33431;PMS5003;35187;31.882;34.828;2023-05-10T15:12:15;19;18;
33431;PMS5003;35187;31.882;34.828;2023-05-10T15:14:45;32;31;
33431;PMS5003;35187;31.882;34.828;2023-05-10T15:17:16;24;24;
33431;PMS5003;35187;31.882;34.828;2023-05-10T15:19:46;15;14;
33431;PMS5003;35187;31.882;34.828;2023-05-10T15:22:15;14;12;
33431;PMS5003;35187;31.882;34.828;2023-05-10T15:24:45;15;13;
33431;PMS5003;35187;31.882;34.828;2023-05-10T15:27:16;16;15;
33431;PMS5003;35187;31.882;34.828;2023-05-10T15:29:45;16;12;
33431;PMS5003;35187;31.882;34.828;2023-05-10T15:32:16;12;11;
33431;PMS5003;35187;31.882;34.828;2023-05-10T15:34:45;15;13;
33431;PMS5003;35187;31.882;34.828;2023-05-10T15:37:14;14;12;
33431;PMS5003;35187;31.882;34.828;2023-05-10T15:39:44;15;13;
33431;PMS5003;35187;31.882;34.828;2023-05-10T15:42:13;11;11;
33431;PMS5003;35187;31.882;34.828;2023-05-10T15:44:43;13;12;
33431;PMS5003;35187;31.882;34.828;2023-05-10T15:47:18;15;13;
33431;PMS5003;35187;31.882;34.828;2023-05-10T15:49:48;15;14;
33431;PMS5003;35187;31.882;34.828;2023-05-10T15:52:18;14;13;
33431;PMS5003;35187;31.882;34.828;2023-05-10T15:54:48;15;14;
33431;PMS5003;35187;31.882;34.828;2023-05-10T15:57:19;16;14;
33431;PMS5003;35187;31.882;34.828;2023-05-10T15:59:48;13;13;
33431;PMS5003;35187;31.882;34.828;2023-05-10T16:02:17;12;12;
33431;PMS5003;35187;31.882;34.828;2023-05-10T16:04:46;16;13;
33431;PMS5003;35187;31.882;34.828;2023-05-10T16:07:16;15;14;
33431;PMS5003;35187;31.882;34.828;2023-05-10T16:09:46;13;12;
33431;PMS5003;35187;31.882;34.828;2023-05-10T16:12:16;14;13;
33431;PMS5003;35187;31.882;34.828;2023-05-10T16:14:45;11;10;
33431;PMS5003;35187;31.882;34.828;2023-05-10T16:17:16;16;15;
33431;PMS5003;35187;31.882;34.828;2023-05-10T16:19:47;14;14;
33431;PMS5003;35187;31.882;34.828;2023-05-10T16:22:16;18;15;
33431;PMS5003;35187;31.882;34.828;2023-05-10T16:24:46;17;15;
33431;PMS5003;35187;31.882;34.828;2023-05-10T16:27:15;25;23;
33431;PMS5003;35187;31.882;34.828;2023-05-10T16:29:45;14;12;
33431;PMS5003;35187;31.882;34.828;2023-05-10T16:32:14;14;14;
33431;PMS5003;35187;31.882;34.828;2023-05-10T16:34:51;15;14;
33431;PMS5003;35187;31.882;34.828;2023-05-10T16:37:23;16;14;